Time;durP1;ratioP1;P1;durP2;ratioP2;P2;SDS_P1;SDS_P2;PMS_P1;PMS_P2;Temp;Humidity;BMP_temperature;BMP_pressure;BME280_temperature;BME280_humidity;BME280_pressure;Samples;Min_cycle;Max_cycle;Signal;HPM_P1;HPM_P2
2021/06/11 00:01:04;;;;;;;10.80;9.07;;;;;;;16.80;85.67;99963.63;1835532;76;21072;-69
2021/06/11 00:03:31;;;;;;;10.67;8.40;;;;;;;16.82;85.62;99963.56;1822361;77;21507;-69
2021/06/11 00:05:57;;;;;;;9.40;7.83;;;;;;;16.83;85.54;99961.66;1817950;77;21105;-69
2021/06/11 00:08:25;;;;;;;8.23;6.83;;;;;;;16.85;85.46;99961.59;1820074;77;21077;-69
2021/06/11 00:10:52;;;;;;;7.87;6.70;;;;;;;16.87;85.32;99958.57;1821145;77;21571;-69
2021/06/11 00:13:19;;;;;;;8.50;6.60;;;;;;;16.87;85.17;99959.36;1817203;77;21117;-69
2021/06/11 00:15:45;;;;;;;7.40;6.70;;;;;;;16.87;85.06;99968.01;1820556;77;21013;-69
2021/06/11 00:18:13;;;;;;;7.60;6.43;;;;;;;16.88;84.90;99966.36;1822718;77;21025;-67
2021/06/11 00:20:40;;;;;;;7.50;6.53;;;;;;;16.87;84.82;99972.84;1820724;77;21037;-68
2021/06/11 00:23:07;;;;;;;7.50;6.40;;;;;;;16.90;84.78;99970.09;1812024;78;21118;-69
2021/06/11 00:25:33;;;;;;;6.20;4.63;;;;;;;16.90;84.63;99974.12;1833970;76;21733;-70
2021/06/11 00:28:01;;;;;;;6.27;5.37;;;;;;;16.90;84.46;99971.43;1797578;77;21090;-69
2021/06/11 00:30:29;;;;;;;5.97;4.93;;;;;;;16.87;84.36;99972.84;1833522;76;21030;-69
2021/06/11 00:32:59;;;;;;;5.67;5.03;;;;;;;16.86;84.21;99971.27;1817412;77;21074;-69
2021/06/11 00:35:26;;;;;;;6.93;4.87;;;;;;;16.83;84.13;99967.84;1805260;77;21114;-69
2021/06/11 00:37:52;;;;;;;8.40;5.13;;;;;;;16.84;84.13;99972.68;1785100;78;21881;-69
2021/06/11 00:40:19;;;;;;;6.20;4.90;;;;;;;16.84;84.10;99969.98;1815706;77;21152;-69
2021/06/11 00:42:46;;;;;;;7.43;5.13;;;;;;;16.85;84.08;99970.25;1813367;77;21030;-69
2021/06/11 00:45:13;;;;;;;6.20;5.33;;;;;;;16.87;84.07;99980.94;1818638;77;21050;-68
2021/06/11 00:47:40;;;;;;;7.37;5.77;;;;;;;16.88;83.97;99973.67;1821824;77;21061;-70
2021/06/11 00:50:09;;;;;;;8.67;6.40;;;;;;;16.90;83.96;99972.78;1824188;77;21136;-70
2021/06/11 00:52:38;;;;;;;8.27;6.20;;;;;;;16.91;83.97;99970.31;1824854;78;21050;-70
2021/06/11 00:55:06;;;;;;;8.47;6.97;;;;;;;16.92;83.95;99974.62;1821759;78;21076;-69
2021/06/11 00:57:33;;;;;;;7.87;6.60;;;;;;;16.93;83.97;99978.91;1828854;76;21668;-70
2021/06/11 01:00:00;;;;;;;7.13;5.90;;;;;;;16.91;83.95;99979.76;1806921;77;21062;-70
2021/06/11 01:02:27;;;;;;;8.43;6.60;;;;;;;16.91;83.96;99982.45;1811388;77;21852;-69
2021/06/11 01:04:53;;;;;;;7.97;7.07;;;;;;;16.88;84.00;99987.95;1802208;78;21038;-68
2021/06/11 01:07:22;;;;;;;8.10;6.33;;;;;;;16.87;84.08;99989.59;1809993;77;21054;-69
2021/06/11 01:09:49;;;;;;;8.73;5.73;;;;;;;16.87;84.17;99984.98;1817245;78;21083;-69
2021/06/11 01:12:16;;;;;;;8.57;6.63;;;;;;;16.88;84.21;99980.41;1818587;77;21501;-70
2021/06/11 01:14:43;;;;;;;7.93;7.00;;;;;;;16.86;84.28;99986.66;1815844;77;21835;-69
2021/06/11 01:17:11;;;;;;;10.53;7.70;;;;;;;16.85;84.28;99983.73;1814409;77;21170;-68
2021/06/11 01:19:46;;;;;;;9.57;8.33;;;;;;;16.83;84.28;99989.42;1787015;77;21042;-69
2021/06/11 01:22:39;;;;;;;9.80;7.20;;;;;;;16.83;84.34;99993.47;1808204;77;21054;-69
2021/06/11 01:25:13;;;;;;;9.77;7.93;;;;;;;16.81;84.30;99990.31;1810077;77;21075;-68
2021/06/11 01:27:43;;;;;;;10.83;8.90;;;;;;;16.79;84.29;99993.86;1818651;77;21051;-69
2021/06/11 01:30:18;;;;;;;9.17;8.13;;;;;;;16.78;84.27;99992.80;1819326;78;21094;-69
2021/06/11 01:32:45;;;;;;;10.13;8.70;;;;;;;16.77;84.17;99995.27;1814711;77;21815;-70
2021/06/11 01:35:17;;;;;;;9.90;8.17;;;;;;;16.78;84.12;99992.80;1818692;77;21058;-70
2021/06/11 01:37:43;;;;;;;8.23;7.23;;;;;;;16.78;84.10;99999.02;1830312;76;20995;-70
2021/06/11 01:40:12;;;;;;;8.77;7.20;;;;;;;16.80;84.00;99991.95;1812631;77;22181;-71
2021/06/11 01:42:42;;;;;;;7.57;5.97;;;;;;;16.79;83.89;99995.77;1803601;78;21601;-70
2021/06/11 01:45:10;;;;;;;7.03;5.17;;;;;;;16.80;83.79;99993.30;1815283;77;21117;-71
2021/06/11 01:47:49;;;;;;;6.57;5.23;;;;;;;16.77;83.65;99991.22;1814270;77;21517;-70
2021/06/11 01:50:23;;;;;;;6.03;4.80;;;;;;;16.78;83.62;99988.76;1801770;78;21070;-70
2021/06/11 01:52:50;;;;;;;6.70;5.30;;;;;;;16.77;83.66;99993.92;1807047;77;21814;-70
2021/06/11 01:55:19;;;;;;;7.97;5.00;;;;;;;16.76;83.69;100002.57;1807553;77;21670;-71
2021/06/11 01:57:47;;;;;;;6.90;4.77;;;;;;;16.76;83.70;100001.78;1812129;77;21006;-71
2021/06/11 02:00:17;;;;;;;7.20;5.40;;;;;;;16.76;83.78;99999.88;1808779;77;21038;-71
2021/06/11 02:02:44;;;;;;;6.23;4.53;;;;;;;16.74;83.83;99996.65;1802207;77;21101;-70
2021/06/11 02:05:11;;;;;;;7.33;5.47;;;;;;;16.75;83.89;99996.13;1810084;77;21490;-70
2021/06/11 02:07:38;;;;;;;9.33;5.77;;;;;;;16.72;83.87;99994.05;1814892;78;21006;-70
2021/06/11 02:10:09;;;;;;;7.20;5.67;;;;;;;16.71;83.95;99996.48;1824279;77;21068;-70
2021/06/11 02:12:37;;;;;;;6.67;5.40;;;;;;;16.70;83.96;99994.90;1794240;77;21044;-70
2021/06/11 02:15:06;;;;;;;6.87;5.50;;;;;;;16.71;83.96;99995.92;1806954;77;21066;-70
2021/06/11 02:17:38;;;;;;;8.20;5.57;;;;;;;16.70;83.93;99997.59;1814603;77;21084;-71
2021/06/11 02:20:09;;;;;;;8.47;5.47;;;;;;;16.67;83.93;100006.30;1817322;78;21418;-71
2021/06/11 02:22:38;;;;;;;7.33;5.20;;;;;;;16.64;83.97;100002.32;1782405;78;21015;-69
2021/06/11 02:25:07;;;;;;;6.90;5.00;;;;;;;16.62;84.01;100000.51;1812229;77;21596;-70
2021/06/11 02:27:35;;;;;;;6.43;5.20;;;;;;;16.61;84.08;100010.47;1813774;78;21074;-71
2021/06/11 02:30:07;;;;;;;7.43;5.37;;;;;;;16.59;84.14;100002.47;1801005;78;21120;-70
2021/06/11 02:32:35;;;;;;;6.43;5.13;;;;;;;16.59;84.23;100007.31;1821173;77;21491;-70
2021/06/11 02:35:04;;;;;;;7.33;5.13;;;;;;;16.58;84.27;100013.81;1816345;77;21801;-70
2021/06/11 02:37:31;;;;;;;6.40;5.20;;;;;;;16.58;84.30;100011.64;1813630;77;21026;-70
2021/06/11 02:39:57;;;;;;;7.33;5.00;;;;;;;16.58;84.32;100011.13;1837453;76;21637;-70
2021/06/11 02:42:25;;;;;;;9.07;5.47;;;;;;;16.60;84.34;100007.55;1835612;76;21178;-71
2021/06/11 02:44:53;;;;;;;6.10;5.10;;;;;;;16.61;84.34;100014.52;1793389;77;21458;-70
2021/06/11 02:47:28;;;;;;;6.70;4.60;;;;;;;16.62;84.42;100016.69;1784363;78;21065;-71
2021/06/11 02:50:03;;;;;;;8.57;5.63;;;;;;;16.65;84.39;100015.51;1804285;79;21770;-70
2021/06/11 02:52:31;;;;;;;6.27;4.83;;;;;;;16.64;84.46;100017.95;1838820;76;21102;-70
2021/06/11 02:55:02;;;;;;;6.77;5.67;;;;;;;16.68;84.53;100015.98;1840359;77;21427;-69
2021/06/11 02:58:07;;;;;;;5.65;5.08;;;;;;;16.68;84.61;100014.07;1837285;76;21063;-70
2021/06/11 03:00:34;;;;;;;6.47;5.73;;;;;;;16.72;84.67;100016.97;1834589;77;21038;-70
2021/06/11 03:03:21;;;;;;;9.90;6.17;;;;;;;16.77;84.74;100010.10;1791927;77;21109;-70
2021/06/11 03:05:55;;;;;;;7.40;6.50;;;;;;;16.81;84.76;100016.45;1839523;77;21040;-71
2021/06/11 03:08:29;;;;;;;8.27;7.43;;;;;;;16.84;84.71;100015.84;1834351;76;21291;-71
2021/06/11 03:11:01;;;;;;;8.90;7.63;;;;;;;16.85;84.73;100009.36;1833958;77;21056;-70
2021/06/11 03:13:28;;;;;;;8.65;7.37;;;;;;;16.86;84.72;100013.63;1844842;76;21102;-69
2021/06/11 03:15:57;;;;;;;9.70;7.73;;;;;;;16.89;84.80;100018.41;1838270;76;21553;-69
2021/06/11 03:18:31;;;;;;;8.57;7.20;;;;;;;16.90;84.87;100018.64;1814333;77;21120;-70
2021/06/11 03:21:03;;;;;;;7.33;6.60;;;;;;;16.94;84.91;100016.11;1807098;77;22205;-69
2021/06/11 03:23:32;;;;;;;;;;;;;;;16.95;84.82;100025.25;1832076;76;21097;-70
2021/06/11 03:26:02;;;;;;;8.53;5.70;;;;;;;16.95;84.85;100025.25;1818866;78;20501;-71
2021/06/11 03:28:43;;;;;;;8.17;5.83;;;;;;;16.97;84.78;100028.42;1815105;77;21026;-70
2021/06/11 03:31:23;;;;;;;6.85;6.15;;;;;;;16.99;84.74;100036.22;1805635;78;21104;-71
2021/06/11 03:33:54;;;;;;;9.37;6.67;;;;;;;17.00;84.79;100030.49;1816650;77;21101;-70
2021/06/11 03:36:25;;;;;;;7.70;5.77;;;;;;;17.03;84.93;100032.56;1811943;77;21018;-71
2021/06/11 03:39:05;;;;;;;8.43;6.37;;;;;;;17.07;85.05;100030.83;1816072;77;21489;-69
2021/06/11 03:41:35;;;;;;;7.97;5.20;;;;;;;17.09;84.88;100029.97;1816095;77;21071;-70
2021/06/11 03:44:03;;;;;;;6.60;5.63;;;;;;;17.11;84.79;100037.21;1827509;76;21057;-71
2021/06/11 03:46:31;;;;;;;6.60;5.23;;;;;;;17.13;84.65;100032.84;1796905;78;21634;-71
2021/06/11 03:49:00;;;;;;;6.17;5.30;;;;;;;17.18;84.56;100035.96;1806151;77;21090;-70
2021/06/11 03:51:27;;;;;;;7.47;5.50;;;;;;;17.21;84.24;100026.68;1818253;77;21022;-69
2021/06/11 03:53:54;;;;;;;6.87;5.87;;;;;;;17.23;84.12;100025.00;1793865;78;21569;-70
2021/06/11 03:56:21;;;;;;;9.23;7.23;;;;;;;17.27;83.90;100025.95;1815234;77;21026;-71
2021/06/11 03:58:49;;;;;;;7.70;6.90;;;;;;;17.30;83.79;100030.73;1816710;77;21075;-69
2021/06/11 04:01:24;;;;;;;8.07;7.27;;;;;;;17.31;83.62;100026.38;1812716;77;21015;-70
2021/06/11 04:03:53;;;;;;;8.63;5.87;;;;;;;17.36;83.44;100028.13;1811769;77;21522;-71
2021/06/11 04:06:28;;;;;;;7.37;6.30;;;;;;;17.38;83.28;100034.58;1799973;77;20972;-71
2021/06/11 04:08:59;;;;;;;6.43;5.80;;;;;;;17.40;83.25;100032.34;1795574;78;21522;-70
2021/06/11 04:11:27;;;;;;;8.23;5.78;;;;;;;17.46;83.10;100045.38;1811740;77;21926;-70
2021/06/11 04:14:01;;;;;;;8.50;5.83;;;;;;;17.49;82.93;100033.94;1815847;77;21526;-70
2021/06/11 04:16:45;;;;;;;9.53;5.93;;;;;;;17.53;82.76;100042.20;1794115;78;21097;-71
2021/06/11 04:19:20;;;;;;;8.17;5.83;;;;;;;17.55;82.31;100037.30;1837281;77;21043;-70
2021/06/11 04:21:47;;;;;;;12.23;7.60;;;;;;;17.54;82.19;100043.25;1803703;78;21623;-71
2021/06/11 04:24:15;;;;;;;8.90;7.40;;;;;;;17.57;82.13;100042.62;1835120;76;21122;-70
2021/06/11 04:26:42;;;;;;;10.57;8.53;;;;;;;17.64;81.99;100045.41;1806421;77;21071;-70
2021/06/11 04:29:16;;;;;;;10.73;9.63;;;;;;;17.65;81.69;100042.38;1824117;77;21045;-69
2021/06/11 04:31:43;;;;;;;11.00;8.40;;;;;;;17.71;81.61;100056.54;1817565;77;21069;-70
2021/06/11 04:34:16;;;;;;;9.33;8.33;;;;;;;17.74;81.32;100051.30;1822801;77;21088;-69
2021/06/11 04:36:46;;;;;;;8.87;7.60;;;;;;;17.75;81.15;100045.33;1823675;77;21991;-70
2021/06/11 04:39:13;;;;;;;9.80;7.70;;;;;;;17.77;80.93;100049.91;1823371;77;21054;-71
2021/06/11 04:41:40;;;;;;;7.60;6.27;;;;;;;17.77;80.74;100050.69;1836857;76;21030;-70
2021/06/11 04:44:07;;;;;;;7.20;5.93;;;;;;;17.78;80.59;100051.48;1812466;77;21490;-71
2021/06/11 04:46:34;;;;;;;8.10;6.00;;;;;;;17.77;80.37;100053.39;1817623;77;21018;-72
2021/06/11 04:49:01;;;;;;;9.27;6.07;;;;;;;17.75;80.40;100050.73;1813987;77;21070;-71
2021/06/11 04:51:30;;;;;;;7.30;5.70;;;;;;;17.74;80.38;100053.20;1813176;77;21629;-72
2021/06/11 04:53:58;;;;;;;7.67;5.20;;;;;;;17.75;80.35;100051.52;1817810;77;21121;-76
2021/06/11 04:56:24;;;;;;;7.90;6.03;;;;;;;17.80;80.29;100044.66;1818370;77;21141;-70
2021/06/11 04:58:53;;;;;;;10.37;7.53;;;;;;;17.82;80.07;100049.73;1817457;77;22138;-70
2021/06/11 05:01:19;;;;;;;12.20;9.57;;;;;;;17.87;79.97;100045.53;1815331;77;21131;-76
2021/06/11 05:03:46;;;;;;;10.90;8.73;;;;;;;17.92;79.66;100052.11;1816514;77;21015;-71
2021/06/11 05:06:14;;;;;;;13.53;10.80;;;;;;;17.95;79.50;100047.98;1813016;78;21077;-70
2021/06/11 05:08:42;;;;;;;17.13;14.50;;;;;;;17.97;79.54;100049.27;1805078;78;21025;-70
2021/06/11 05:11:09;;;;;;;18.47;16.47;;;;;;;17.99;79.56;100052.42;1807454;77;21012;-69
2021/06/11 05:13:38;;;;;;;16.73;14.07;;;;;;;18.04;79.38;100048.78;1814678;77;21055;-71
2021/06/11 05:16:05;;;;;;;18.07;15.33;;;;;;;18.08;79.23;100047.58;1818969;77;21016;-73
2021/06/11 05:18:32;;;;;;;19.53;16.00;;;;;;;18.12;79.04;100041.20;1820339;77;21038;-72
2021/06/11 05:20:59;;;;;;;18.03;15.27;;;;;;;18.18;79.03;100049.39;1814128;77;21485;-71
2021/06/11 05:23:26;;;;;;;20.23;18.07;;;;;;;18.23;78.74;100045.75;1811677;77;21027;-73
2021/06/11 05:25:53;;;;;;;23.03;19.90;;;;;;;18.27;78.70;100047.48;1816613;77;21099;-72
2021/06/11 05:28:22;;;;;;;29.37;26.27;;;;;;;18.33;78.48;100048.64;1818684;77;21261;-73
2021/06/11 05:30:50;;;;;;;26.33;23.13;;;;;;;18.42;78.15;100051.56;1814228;77;21011;-73
2021/06/11 05:33:16;;;;;;;30.83;26.73;;;;;;;18.55;77.75;100047.65;1814222;77;21018;-72
2021/06/11 05:35:43;;;;;;;30.20;25.83;;;;;;;18.62;77.26;100051.44;1815377;77;21229;-73
2021/06/11 05:38:12;;;;;;;30.07;26.87;;;;;;;18.70;76.86;100053.90;1816352;77;21100;-73
2021/06/11 05:40:39;;;;;;;22.57;20.17;;;;;;;18.75;76.50;100049.67;1865561;74;21139;-73
2021/06/11 05:43:06;;;;;;;25.67;21.83;;;;;;;18.84;76.50;100047.73;1881645;75;21085;-77
2021/06/11 05:45:33;;;;;;;25.70;23.00;;;;;;;18.94;76.26;100052.00;1882984;74;21115;-72
2021/06/11 05:48:00;;;;;;;27.47;24.57;;;;;;;19.03;75.86;100054.11;1882581;74;21077;-73
2021/06/11 05:50:27;;;;;;;29.23;24.77;;;;;;;19.09;75.43;100052.02;1882062;74;22165;-75
2021/06/11 05:52:55;;;;;;;29.33;26.23;;;;;;;19.14;75.50;100053.97;1876979;74;21320;-77
2021/06/11 05:55:23;;;;;;;29.33;25.47;;;;;;;19.22;75.06;100060.47;1873063;74;21124;-74
2021/06/11 05:57:49;;;;;;;23.23;20.73;;;;;;;19.26;74.54;100061.40;1879376;74;21623;-74
2021/06/11 06:00:17;;;;;;;21.53;17.87;;;;;;;19.30;74.58;100062.33;1881918;74;21066;-74
2021/06/11 06:02:44;;;;;;;14.10;12.60;;;;;;;19.37;74.52;100062.59;1877792;74;21106;-74
2021/06/11 06:05:12;;;;;;;15.23;13.50;;;;;;;19.41;74.20;100063.55;1880766;74;21574;-76
2021/06/11 06:07:39;;;;;;;12.73;10.50;;;;;;;19.48;74.17;100067.63;1810399;74;77751;-74
2021/06/11 06:10:08;;;;;;;10.43;9.40;;;;;;;19.57;73.66;100073.80;1758591;79;21004;-73
2021/06/11 06:12:36;;;;;;;10.90;9.80;;;;;;;19.49;72.93;100071.38;1768142;79;21103;-73
2021/06/11 06:15:05;;;;;;;11.03;8.53;;;;;;;19.38;73.34;100072.33;1759373;79;21615;-73
2021/06/11 06:17:35;;;;;;;8.53;6.83;;;;;;;19.38;73.68;100075.58;1761577;79;20992;-73
2021/06/11 06:20:04;;;;;;;8.47;7.50;;;;;;;19.33;73.35;100075.21;1763947;79;21632;-74
2021/06/11 06:22:30;;;;;;;9.70;8.40;;;;;;;19.31;73.69;100077.44;1792236;78;21084;-74
2021/06/11 06:24:58;;;;;;;7.40;6.47;;;;;;;19.36;73.43;100079.98;1793671;78;21048;-73
2021/06/11 06:27:24;;;;;;;6.40;5.50;;;;;;;19.40;73.33;100093.09;1796136;78;21111;-74
2021/06/11 06:29:51;;;;;;;6.20;4.83;;;;;;;19.43;73.08;100079.46;1794952;78;21660;-73
2021/06/11 06:32:18;;;;;;;6.73;4.63;;;;;;;19.49;72.79;100081.43;1792675;78;21620;-72
2021/06/11 06:34:44;;;;;;;7.87;5.13;;;;;;;19.55;72.50;100078.77;1791966;78;21057;-74
2021/06/11 06:37:12;;;;;;;5.90;4.63;;;;;;;19.57;72.36;100083.27;1793751;78;21072;-74
2021/06/11 06:39:39;;;;;;;5.73;4.43;;;;;;;19.66;72.38;100086.75;1758113;80;21274;-72
2021/06/11 06:42:07;;;;;;;9.77;5.27;;;;;;;19.76;72.02;100076.09;1758628;80;21517;-73
2021/06/11 06:44:34;;;;;;;7.67;4.60;;;;;;;19.84;71.45;100090.12;1751107;80;21054;-71
2021/06/11 06:47:01;;;;;;;5.50;4.27;;;;;;;19.90;70.76;100076.61;1751591;81;21535;-73
2021/06/11 06:49:28;;;;;;;7.10;4.50;;;;;;;19.98;70.40;100078.47;1750711;81;21671;-73
2021/06/11 06:51:54;;;;;;;5.43;4.30;;;;;;;20.07;70.11;100083.27;1749685;80;21195;-73
2021/06/11 06:54:21;;;;;;;6.50;3.83;;;;;;;20.15;69.54;100076.17;1752825;80;21120;-71
2021/06/11 06:56:49;;;;;;;4.60;3.90;;;;;;;20.28;68.96;100081.88;1751453;81;21058;-72
2021/06/11 06:59:15;;;;;;;5.60;4.03;;;;;;;20.39;68.48;100083.03;1747007;80;21643;-72
2021/06/11 07:01:42;;;;;;;6.57;4.13;;;;;;;20.51;68.00;100078.81;1750540;80;21717;-72
2021/06/11 07:04:09;;;;;;;5.27;3.97;;;;;;;20.61;67.55;100079.17;1751811;80;21908;-72
2021/06/11 07:06:36;;;;;;;6.17;4.20;;;;;;;20.72;66.61;100070.59;1750453;81;21120;-72
2021/06/11 07:09:03;;;;;;;6.10;4.27;;;;;;;20.78;66.33;100071.40;1753371;81;21078;-73
2021/06/11 07:11:30;;;;;;;5.50;4.53;;;;;;;20.82;65.87;100066.88;1752793;80;21159;-72
2021/06/11 07:13:58;;;;;;;5.90;4.80;;;;;;;20.90;65.98;100077.98;1753989;80;21057;-73
2021/06/11 07:16:25;;;;;;;5.70;4.20;;;;;;;20.95;65.67;100064.17;1751802;80;21657;-72
2021/06/11 07:18:52;;;;;;;5.50;3.97;;;;;;;21.01;65.95;100073.12;1751072;81;20920;-77
2021/06/11 07:21:22;;;;;;;5.10;3.47;;;;;;;21.06;65.21;100073.47;1753045;80;21121;-76
2021/06/11 07:23:48;;;;;;;7.33;4.00;;;;;;;21.08;64.83;100075.27;1750081;80;21137;-75
2021/06/11 07:26:15;;;;;;;9.50;8.50;;;;;;;21.07;64.48;100073.12;1753148;80;21085;-76
2021/06/11 07:28:42;;;;;;;5.83;3.50;;;;;;;21.09;64.66;100067.34;1752720;81;21222;-76
2021/06/11 07:31:09;;;;;;;5.37;3.30;;;;;;;21.19;63.95;100069.62;1753759;81;21062;-77
2021/06/11 07:33:36;;;;;;;4.97;4.20;;;;;;;21.26;63.06;100064.98;1750428;80;21578;-75
2021/06/11 07:36:03;;;;;;;4.97;3.60;;;;;;;21.29;63.15;100071.09;1752717;80;21050;-76
2021/06/11 07:38:31;;;;;;;7.27;4.07;;;;;;;21.35;63.16;100069.73;1752091;80;21026;-76
2021/06/11 07:40:57;;;;;;;5.70;3.70;;;;;;;21.45;62.07;100073.92;1750161;80;21810;-76
2021/06/11 07:43:24;;;;;;;5.67;3.20;;;;;;;21.43;61.60;100070.77;1750823;80;21102;-78
2021/06/11 07:45:51;;;;;;;5.33;3.80;;;;;;;21.47;61.92;100079.23;1752392;80;21137;-77
2021/06/11 07:48:18;;;;;;;6.17;3.20;;;;;;;21.51;61.52;100076.06;1746482;80;21035;-77
2021/06/11 07:50:45;;;;;;;4.30;3.27;;;;;;;21.54;60.80;100088.97;1754693;80;21049;-77
2021/06/11 07:53:12;;;;;;;4.33;3.03;;;;;;;21.52;60.20;100075.52;1751185;80;21168;-76
2021/06/11 07:55:41;;;;;;;4.10;3.03;;;;;;;21.52;60.76;100071.44;1754734;80;21046;-77
2021/06/11 07:58:07;;;;;;;4.50;3.20;;;;;;;21.61;60.74;100078.88;1746846;80;21798;-77
2021/06/11 08:00:34;;;;;;;5.50;3.10;;;;;;;21.65;60.19;100075.72;1754177;80;21102;-78
2021/06/11 08:03:01;;;;;;;3.80;3.07;;;;;;;21.66;59.30;100072.42;1755476;80;21093;-74
2021/06/11 08:05:28;;;;;;;4.10;2.87;;;;;;;21.65;59.96;100071.64;1751520;80;21115;-77
2021/06/11 08:07:55;;;;;;;4.63;3.00;;;;;;;21.72;60.23;100080.00;1750955;81;21046;-76
2021/06/11 08:10:23;;;;;;;4.57;3.30;;;;;;;21.81;59.16;100075.77;1747649;80;21625;-75
2021/06/11 08:12:50;;;;;;;4.37;3.00;;;;;;;21.88;59.55;100083.34;1750602;80;21026;-76
2021/06/11 08:15:17;;;;;;;6.60;3.33;;;;;;;22.03;59.66;100075.82;1748609;80;21101;-75
2021/06/11 08:17:44;;;;;;;5.83;3.30;;;;;;;22.20;58.58;100076.91;1754706;80;21509;-76
2021/06/11 08:20:11;;;;;;;3.70;2.80;;;;;;;22.28;58.13;100079.81;1737413;81;21560;-75
2021/06/11 08:22:38;;;;;;;4.20;2.80;;;;;;;22.27;56.62;100081.75;1760323;80;21066;-76
2021/06/11 08:25:07;;;;;;;4.00;2.60;;;;;;;22.23;56.15;100083.02;1755943;80;21085;-76
2021/06/11 08:27:34;;;;;;;3.53;3.00;;;;;;;22.23;56.09;100080.30;1757414;80;21169;-77
2021/06/11 08:30:01;;;;;;;4.90;3.20;;;;;;;22.20;56.42;100078.27;1757828;80;21549;-77
2021/06/11 08:32:27;;;;;;;4.37;2.60;;;;;;;22.16;57.04;100076.03;1753177;81;21085;-76
2021/06/11 08:34:54;;;;;;;4.20;2.67;;;;;;;22.15;57.56;100077.17;1757337;80;21683;-76
2021/06/11 08:37:21;;;;;;;7.37;3.10;;;;;;;22.22;57.51;100080.66;1756498;80;21069;-77
2021/06/11 08:39:53;;;;;;;3.83;3.17;;;;;;;22.25;56.82;100079.97;1736548;81;21154;-76
2021/06/11 08:42:29;;;;;;;4.93;3.27;;;;;;;22.26;55.72;100079.39;1784809;79;21010;-75
2021/06/11 08:45:03;;;;;;;4.10;2.83;;;;;;;22.24;55.79;100081.90;1769079;79;22393;-76
2021/06/11 08:47:30;;;;;;;5.23;3.10;;;;;;;22.22;55.82;100086.88;1724892;81;21588;-76
2021/06/11 08:49:57;;;;;;;4.10;3.20;;;;;;;22.24;55.94;100088.70;1723834;81;21071;-76
2021/06/11 08:52:24;;;;;;;3.20;2.67;;;;;;;22.28;55.91;100083.90;1710033;82;21618;-76
2021/06/11 08:54:51;;;;;;;4.10;3.00;;;;;;;22.34;55.98;100081.16;1739426;80;21168;-76
2021/06/11 08:57:19;;;;;;;3.60;2.80;;;;;;;22.37;55.49;100084.54;1741850;80;21014;-75
2021/06/11 08:59:47;;;;;;;4.80;3.10;;;;;;;22.28;55.24;100083.90;1746300;81;21086;-77
2021/06/11 09:02:15;;;;;;;5.80;2.70;;;;;;;22.23;55.25;100078.94;1736773;81;21030;-77
2021/06/11 09:04:51;;;;;;;3.63;2.93;;;;;;;22.26;55.22;100084.83;1745594;81;21030;-76
2021/06/11 09:07:25;;;;;;;4.90;3.30;;;;;;;22.29;54.53;100086.86;1740000;80;21136;-80
2021/06/11 09:10:04;;;;;;;4.70;3.10;;;;;;;22.29;54.75;100080.84;1737641;81;21077;-75
2021/06/11 09:12:38;;;;;;;4.73;3.33;;;;;;;22.30;55.26;100077.55;1781447;79;21527;-76
2021/06/11 09:15:11;;;;;;;5.73;3.50;;;;;;;22.34;55.64;100079.80;1779548;79;21078;-76
2021/06/11 09:17:48;;;;;;;5.07;3.17;;;;;;;22.36;55.44;100074.23;1741224;81;21104;-74
2021/06/11 09:20:40;;;;;;;4.03;3.00;;;;;;;22.33;55.22;100079.00;1738437;81;21668;-78
2021/06/11 09:23:00;;;;;;;3.97;2.77;;;;;;;22.26;55.38;100073.38;1781562;79;21085;-75
2021/06/11 09:25:36;;;;;;;5.67;3.13;;;;;;;22.23;55.84;100076.79;1786809;79;21191;-76
2021/06/11 09:28:05;;;;;;;4.10;3.20;;;;;;;22.24;55.83;100079.18;1772609;79;21057;-75
2021/06/11 09:30:44;;;;;;;5.17;3.13;;;;;;;22.22;54.95;100081.45;1727274;81;21133;-77
2021/06/11 09:33:19;;;;;;;4.00;2.87;;;;;;;22.17;55.02;100074.87;1712160;82;21134;-76
2021/06/11 09:35:53;;;;;;;4.00;2.70;;;;;;;22.13;54.90;100073.18;1774897;79;21057;-77
2021/06/11 09:38:26;;;;;;;4.03;3.23;;;;;;;22.08;54.84;100066.61;1726411;81;21053;-77
2021/06/11 09:41:05;;;;;;;4.93;3.20;;;;;;;22.08;55.26;100065.25;1718133;82;21057;-77
2021/06/11 09:43:32;;;;;;;4.63;3.43;;;;;;;22.08;55.19;100067.43;1739848;82;21297;-77
2021/06/11 09:46:09;;;;;;;4.87;3.23;;;;;;;22.17;55.68;100065.93;1740070;80;21112;-76
2021/06/11 09:48:45;;;;;;;3.80;2.83;;;;;;;22.30;55.27;100072.11;1744207;80;21037;-75
2021/06/11 09:51:19;;;;;;;4.00;2.83;;;;;;;22.35;54.35;100063.71;1740978;80;21050;-76
2021/06/11 09:53:46;;;;;;;4.63;2.63;;;;;;;22.42;54.35;100058.45;1733873;81;21215;-75
2021/06/11 09:56:27;;;;;;;4.40;2.80;;;;;;;22.59;52.61;100054.61;1734740;81;21638;-75
2021/06/11 09:58:56;;;;;;;3.42;2.70;;;;;;;22.73;52.15;100056.89;1733941;81;21127;-75
2021/06/11 10:01:24;;;;;;;3.33;2.40;;;;;;;22.89;52.04;100048.16;1737774;81;21026;-75
2021/06/11 10:03:53;;;;;;;4.50;2.57;;;;;;;23.10;51.48;100058.23;1740521;81;21003;-75
2021/06/11 10:06:26;;;;;;;6.57;2.90;;;;;;;23.31;50.17;100066.69;1775054;79;21089;-75
2021/06/11 10:08:52;;;;;;;7.57;3.40;;;;;;;23.43;50.10;100051.59;1777816;79;21022;-77
2021/06/11 10:11:25;;;;;;;4.43;3.30;;;;;;;23.45;49.95;100050.64;1726038;81;21118;-76
2021/06/11 10:13:51;;;;;;;4.93;2.80;;;;;;;23.36;49.77;100052.22;1723244;81;21050;-76
2021/06/11 10:16:18;;;;;;;4.33;3.20;;;;;;;23.15;50.46;100057.95;1745733;81;21003;-75
2021/06/11 10:18:46;;;;;;;17.00;3.43;;;;;;;23.02;51.12;100059.77;1740778;81;21053;-76
2021/06/11 10:21:13;;;;;;;3.80;3.10;;;;;;;23.07;51.71;100064.39;1779838;79;21028;-75
2021/06/11 10:23:40;;;;;;;4.63;3.60;;;;;;;23.23;51.78;100063.56;1774552;79;21778;-76
2021/06/11 10:26:09;;;;;;;5.33;3.47;;;;;;;23.34;51.51;100068.70;1783186;79;21047;-76
2021/06/11 10:28:47;;;;;;;5.53;3.60;;;;;;;23.31;51.80;100058.51;1734993;81;21520;-76
2021/06/11 10:31:17;;;;;;;4.03;3.40;;;;;;;23.21;52.22;100063.14;1704070;84;21070;-75
2021/06/11 10:33:52;;;;;;;4.63;3.50;;;;;;;23.06;52.06;100058.70;1705419;82;21100;-76
2021/06/11 10:36:31;;;;;;;4.00;2.93;;;;;;;22.97;52.76;100060.84;1736248;81;21191;-77
2021/06/11 10:39:16;;;;;;;37.00;7.27;;;;;;;22.89;52.47;100053.02;1713817;81;22208;-77
2021/06/11 10:42:09;;;;;;;31.57;6.00;;;;;;;22.78;52.90;100056.06;1723456;81;21018;-76
2021/06/11 10:44:52;;;;;;;25.90;5.10;;;;;;;22.55;53.20;100051.80;1738085;81;21034;-75
2021/06/11 10:47:24;;;;;;;30.33;5.40;;;;;;;22.27;54.10;100055.12;1733793;81;20939;-75
2021/06/11 10:50:01;;;;;;;10.40;3.50;;;;;;;22.01;55.45;100058.50;1735235;81;21082;-75
2021/06/11 10:52:54;;;;;;;5.00;2.80;;;;;;;21.83;56.44;100043.61;1736431;81;21042;-74
2021/06/11 10:55:24;;;;;;;4.67;2.93;;;;;;;21.78;57.10;100046.01;1740032;81;21501;-75
2021/06/11 10:58:00;;;;;;;4.07;2.80;;;;;;;21.92;57.87;100044.83;1733531;81;21589;-76
2021/06/11 11:00:33;;;;;;;5.43;2.77;;;;;;;22.18;58.45;100040.34;1744214;81;21117;-77
2021/06/11 11:03:04;;;;;;;7.77;3.40;;;;;;;22.56;58.74;100035.67;1731244;82;21157;-78
2021/06/11 11:05:42;;;;;;;10.40;4.00;;;;;;;22.99;57.16;100030.52;1732016;81;21131;-76
2021/06/11 11:08:10;;;;;;;4.67;3.10;;;;;;;23.38;56.49;100021.88;1732820;81;21146;-76
2021/06/11 11:10:43;;;;;;;4.17;3.00;;;;;;;23.74;53.92;100029.47;1742385;81;21062;-76
2021/06/11 11:13:18;;;;;;;5.10;3.20;;;;;;;23.88;51.72;100032.48;1782951;79;21053;-76
2021/06/11 11:15:49;;;;;;;5.93;3.40;;;;;;;23.91;50.58;100029.61;1742177;81;21132;-76
2021/06/11 11:18:41;;;;;;;5.10;3.60;;;;;;;23.87;50.16;100026.81;1775947;79;21125;-76
2021/06/11 11:21:29;;;;;;;5.30;3.47;;;;;;;23.85;50.34;100031.83;1724511;81;21117;-75
2021/06/11 11:23:59;;;;;;;5.57;3.70;;;;;;;23.72;50.63;100032.55;1737044;81;21590;-74
2021/06/11 11:26:50;;;;;;;6.40;3.57;;;;;;;23.34;55.41;100034.06;1774127;79;21033;-74
2021/06/11 11:29:19;;;;;;;5.25;3.60;;;;;;;22.64;58.42;100035.30;1707028;82;21839;-76
2021/06/11 11:31:48;;;;;;;5.90;4.10;;;;;;;21.86;60.44;100030.68;1741200;81;21081;-76
2021/06/11 11:34:15;;;;;;;4.87;4.07;;;;;;;21.38;62.27;100030.23;1705672;82;21651;-75
2021/06/11 11:36:42;;;;;;;4.83;4.07;;;;;;;21.06;63.19;100025.39;1735690;81;21041;-75